createdAt,value
2022-11-15T00:02:43.879Z,5.60
2022-11-15T00:05:30.721Z,5.60
2022-11-15T00:08:18.321Z,5.97
2022-11-15T00:11:05.878Z,5.00
2022-11-15T00:13:52.965Z,5.17
2022-11-15T00:16:41.342Z,5.23
2022-11-15T00:19:28.267Z,6.00
2022-11-15T00:22:15.336Z,4.97
2022-11-15T00:25:02.215Z,5.27
2022-11-15T00:27:49.542Z,5.30
2022-11-15T00:30:36.745Z,4.80
2022-11-15T00:33:25.321Z,5.10
2022-11-15T00:36:12.574Z,5.27
2022-11-15T00:38:59.620Z,4.83
2022-11-15T00:41:46.412Z,5.33
2022-11-15T00:44:33.480Z,5.40
2022-11-15T00:47:20.593Z,5.07
2022-11-15T00:50:14.210Z,5.17
2022-11-15T00:53:02.129Z,4.97
2022-11-15T00:55:49.288Z,4.83
2022-11-15T00:58:36.164Z,4.50
2022-11-15T01:01:23.478Z,4.93
2022-11-15T01:04:10.716Z,4.30
2022-11-15T01:06:59.220Z,4.20
2022-11-15T01:09:46.274Z,4.30
2022-11-15T01:12:33.877Z,4.60
2022-11-15T01:15:21.005Z,4.73
2022-11-15T01:18:07.864Z,4.60
2022-11-15T01:20:55.235Z,4.50
2022-11-15T01:23:43.649Z,4.53
2022-11-15T01:26:30.764Z,4.30
2022-11-15T01:29:17.644Z,4.50
2022-11-15T01:32:05.300Z,4.57
2022-11-15T01:34:52.502Z,4.13
2022-11-15T01:37:39.616Z,4.00
2022-11-15T01:40:28.145Z,4.33
2022-11-15T01:43:24.320Z,4.63
2022-11-15T01:46:29.024Z,4.47
2022-11-15T01:49:21.780Z,4.57
2022-11-15T01:52:13.596Z,4.90
2022-11-15T01:55:09.858Z,3.87
2022-11-15T01:58:06.247Z,4.43
2022-11-15T02:00:54.799Z,4.27
2022-11-15T02:03:52.639Z,4.57
2022-11-15T02:06:42.376Z,4.50
2022-11-15T02:09:29.440Z,4.30
2022-11-15T02:12:21.262Z,3.77
2022-11-15T02:15:12.765Z,3.93
2022-11-15T02:18:13.375Z,4.13
2022-11-15T02:21:20.025Z,3.90
2022-11-15T02:25:02.949Z,4.53
2022-11-15T02:28:34.660Z,4.20
2022-11-15T02:31:30.480Z,4.60
2022-11-15T02:34:29.242Z,4.57
2022-11-15T02:37:27.763Z,4.30
2022-11-15T02:40:28.811Z,4.50
2022-11-15T02:43:44.522Z,4.00
2022-11-15T02:47:00.553Z,4.30
2022-11-15T02:49:52.090Z,4.77
2022-11-15T02:52:39.040Z,4.37
2022-11-15T02:55:32.817Z,4.10
2022-11-15T02:58:50.675Z,3.80
2022-11-15T03:01:58.096Z,4.13
2022-11-15T03:04:54.770Z,3.87
2022-11-15T03:07:56.952Z,4.30
2022-11-15T03:11:03.289Z,4.67
2022-11-15T03:14:00.132Z,4.10
2022-11-15T03:16:59.808Z,4.20
2022-11-15T03:19:49.883Z,4.00
2022-11-15T03:22:42.885Z,3.77
2022-11-15T03:25:33.891Z,4.37
2022-11-15T03:28:27.118Z,4.23
2022-11-15T03:31:35.658Z,4.73
2022-11-15T03:34:32.227Z,3.80
2022-11-15T03:37:24.134Z,3.87
2022-11-15T03:40:12.705Z,3.97
2022-11-15T03:43:09.040Z,4.50
2022-11-15T03:46:02.891Z,4.27
2022-11-15T03:48:58.654Z,4.77
2022-11-15T03:51:47.494Z,4.17
2022-11-15T03:54:34.573Z,4.53
2022-11-15T03:57:21.947Z,4.43
2022-11-15T04:00:10.627Z,4.90
2022-11-15T04:02:57.556Z,4.60
2022-11-15T04:05:44.763Z,4.90
2022-11-15T04:08:32.909Z,5.27
2022-11-15T04:11:19.855Z,4.43
2022-11-15T04:14:07.023Z,4.17
2022-11-15T04:16:54.263Z,4.43
2022-11-15T04:19:59.027Z,4.33
2022-11-15T04:23:03.893Z,4.10
2022-11-15T04:25:55.981Z,4.10
2022-11-15T04:28:57.027Z,4.50
2022-11-15T04:31:44.183Z,4.30
2022-11-15T04:34:31.232Z,4.00
2022-11-15T04:37:18.372Z,4.30
2022-11-15T04:40:06.223Z,4.87
2022-11-15T04:42:57.203Z,4.47
2022-11-15T04:45:49.234Z,4.33
2022-11-15T04:48:36.216Z,4.30
2022-11-15T04:51:23.346Z,4.20
2022-11-15T04:54:10.452Z,4.33
2022-11-15T04:56:57.284Z,4.23
2022-11-15T04:59:45.806Z,4.47
2022-11-15T05:02:46.960Z,4.90
2022-11-15T05:05:34.141Z,4.10
2022-11-15T05:08:21.005Z,4.40
2022-11-15T05:11:08.383Z,4.57
2022-11-15T05:13:56.211Z,4.57
2022-11-15T05:16:45.422Z,5.00
2022-11-15T05:19:32.330Z,4.20
2022-11-15T05:22:19.925Z,4.70
2022-11-15T05:25:08.956Z,4.13
2022-11-15T05:27:56.193Z,4.13
2022-11-15T05:30:43.402Z,4.60
2022-11-15T05:33:32.674Z,4.00
2022-11-15T05:36:29.714Z,4.77
2022-11-15T05:39:16.646Z,4.30
2022-11-15T05:42:09.341Z,4.33
2022-11-15T05:44:56.479Z,4.10
2022-11-15T05:47:44.883Z,4.33
2022-11-15T05:50:34.121Z,4.37
2022-11-15T05:53:24.934Z,4.73
2022-11-15T05:56:13.425Z,3.90
2022-11-15T05:59:01.040Z,4.50
2022-11-15T06:01:48.339Z,4.50
2022-11-15T06:04:35.346Z,4.33
2022-11-15T06:07:24.164Z,4.60
2022-11-15T06:10:11.705Z,4.30
2022-11-15T06:12:59.965Z,4.40
2022-11-15T06:15:46.883Z,4.43
2022-11-15T06:18:35.395Z,4.33
2022-11-15T06:21:22.408Z,6.80
2022-11-15T06:24:10.865Z,4.33
2022-11-15T06:26:58.423Z,4.63
2022-11-15T06:29:45.419Z,4.20
2022-11-15T06:32:32.421Z,4.40
2022-11-15T06:35:19.669Z,4.27
2022-11-15T06:38:09.695Z,4.10
2022-11-15T06:41:04.821Z,3.97
2022-11-15T06:43:51.785Z,4.90
2022-11-15T06:46:39.123Z,4.33
2022-11-15T06:49:26.309Z,4.30
2022-11-15T06:52:13.146Z,4.23
2022-11-15T06:55:00.026Z,4.40
2022-11-15T06:57:54.108Z,4.47
2022-11-15T07:00:42.007Z,5.07
2022-11-15T07:03:29.164Z,4.60
2022-11-15T07:06:16.150Z,4.20
2022-11-15T07:09:04.797Z,3.80
2022-11-15T07:11:52.185Z,3.70
2022-11-15T07:14:40.597Z,4.13
2022-11-15T07:17:27.661Z,3.80
2022-11-15T07:20:15.521Z,3.60
2022-11-15T07:23:03.889Z,3.33
2022-11-15T07:25:51.279Z,3.60
2022-11-15T07:28:38.818Z,2.93
2022-11-15T07:31:28.387Z,3.30
2022-11-15T07:34:15.416Z,3.93
2022-11-15T07:37:02.369Z,3.20
2022-11-15T07:39:49.707Z,3.30
2022-11-15T07:42:56.320Z,3.00
2022-11-15T07:45:45.145Z,3.20
2022-11-15T07:48:43.561Z,3.97
2022-11-15T07:51:31.821Z,2.83
2022-11-15T07:54:19.158Z,3.23
2022-11-15T07:57:08.138Z,3.00
2022-11-15T07:59:55.612Z,3.03
2022-11-15T08:02:43.125Z,3.13
2022-11-15T08:05:31.855Z,3.30
2022-11-15T08:08:19.629Z,3.70
2022-11-15T08:11:06.703Z,2.77
2022-11-15T08:13:53.917Z,3.30
2022-11-15T08:16:40.975Z,3.37
2022-11-15T08:19:27.851Z,4.03
2022-11-15T08:22:16.675Z,4.00
2022-11-15T08:25:03.570Z,4.13
2022-11-15T08:27:53.950Z,3.77
2022-11-15T08:30:44.155Z,3.70
2022-11-15T08:33:32.138Z,3.60
2022-11-15T08:36:19.796Z,3.63
2022-11-15T08:39:08.271Z,3.33
2022-11-15T08:41:55.370Z,3.90
2022-11-15T08:44:42.457Z,2.90
2022-11-15T08:47:29.811Z,3.70
2022-11-15T08:50:17.774Z,3.40
2022-11-15T08:53:09.381Z,3.10
2022-11-15T08:55:57.582Z,3.07
2022-11-15T08:58:44.850Z,3.13
2022-11-15T09:01:31.947Z,3.07
2022-11-15T09:04:19.131Z,3.37
2022-11-15T09:07:06.181Z,2.93
2022-11-15T09:09:53.043Z,3.23
2022-11-15T09:12:41.469Z,3.70
2022-11-15T09:15:28.719Z,3.07
2022-11-15T09:18:16.119Z,2.97
2022-11-15T09:21:03.797Z,3.23
2022-11-15T09:23:53.401Z,2.70
2022-11-15T09:26:40.296Z,2.87
2022-11-15T09:29:28.875Z,3.10
2022-11-15T09:32:15.837Z,3.10
2022-11-15T09:35:02.814Z,3.03
2022-11-15T09:37:54.966Z,2.67
2022-11-15T09:40:43.562Z,3.27
2022-11-15T09:43:45.241Z,2.73
2022-11-15T09:46:52.658Z,3.27
2022-11-15T09:49:37.725Z,3.07
2022-11-15T09:52:16.327Z,2.70
2022-11-15T09:54:53.756Z,2.57
2022-11-15T09:57:32.269Z,2.90
2022-11-15T10:00:48.812Z,2.80
2022-11-15T10:03:16.104Z,2.73
2022-11-15T10:05:47.529Z,2.93
2022-11-15T10:08:35.672Z,2.80
2022-11-15T10:14:02.707Z,3.17
2022-11-15T10:17:08.411Z,2.73
2022-11-15T10:19:52.971Z,2.50
2022-11-15T10:22:30.100Z,2.90
2022-11-15T10:25:24.823Z,2.70
2022-11-15T10:27:59.177Z,2.63
2022-11-15T10:30:36.177Z,2.23
2022-11-15T10:33:21.757Z,2.60
2022-11-15T10:36:19.879Z,2.60
2022-11-15T10:39:14.123Z,2.57
2022-11-15T10:41:44.560Z,2.20
2022-11-15T10:44:27.044Z,2.30
2022-11-15T10:47:25.688Z,2.27
2022-11-15T10:50:01.472Z,2.40
2022-11-15T10:52:34.743Z,2.67
2022-11-15T10:55:26.166Z,2.10
2022-11-15T10:57:57.303Z,2.10
2022-11-15T11:00:34.052Z,2.10
2022-11-15T11:03:06.698Z,3.10
2022-11-15T11:05:42.386Z,2.40
2022-11-15T11:08:26.977Z,2.50
2022-11-15T11:11:02.116Z,2.70
2022-11-15T11:13:34.493Z,2.50
2022-11-15T11:16:39.474Z,2.40
2022-11-15T11:19:28.808Z,2.20
2022-11-15T11:22:11.334Z,2.43
2022-11-15T11:24:55.471Z,2.53
2022-11-15T11:27:44.224Z,2.30
2022-11-15T11:30:20.768Z,2.50
2022-11-15T11:33:17.528Z,2.67
2022-11-15T11:36:01.686Z,2.50
2022-11-15T11:38:56.080Z,2.00
2022-11-15T11:41:44.866Z,2.10
2022-11-15T11:44:30.417Z,2.23
2022-11-15T11:47:03.219Z,2.00
2022-11-15T11:49:43.193Z,1.90
2022-11-15T11:52:19.217Z,1.70
2022-11-15T11:55:03.972Z,1.63
2022-11-15T11:57:45.821Z,2.20
2022-11-15T12:00:21.607Z,2.60
2022-11-15T12:03:06.957Z,1.77
2022-11-15T12:05:41.362Z,1.90
2022-11-15T12:08:32.415Z,1.80
2022-11-15T12:11:12.177Z,2.00
2022-11-15T12:13:44.796Z,2.20
2022-11-15T12:16:19.622Z,1.83
2022-11-15T12:18:53.233Z,1.80
2022-11-15T12:21:36.614Z,1.50
2022-11-15T12:24:14.243Z,1.70
2022-11-15T12:26:51.022Z,1.57
2022-11-15T12:29:28.792Z,1.80
2022-11-15T12:32:00.874Z,1.80
2022-11-15T12:34:45.930Z,1.50
2022-11-15T12:37:50.176Z,1.80
2022-11-15T12:40:35.616Z,1.70
2022-11-15T12:43:40.747Z,1.70
2022-11-15T12:46:21.823Z,1.60
2022-11-15T12:48:58.032Z,1.80
2022-11-15T12:52:07.799Z,1.50
2022-11-15T12:55:00.136Z,1.67
2022-11-15T12:57:43.908Z,1.97
2022-11-15T13:00:42.060Z,1.90
2022-11-15T13:03:30.648Z,1.80
2022-11-15T13:06:31.175Z,1.70
2022-11-15T13:08:59.594Z,1.90
2022-11-15T13:11:51.364Z,3.50
2022-11-15T13:14:48.454Z,3.30
2022-11-15T13:17:35.445Z,3.20
2022-11-15T13:20:28.159Z,4.23
2022-11-15T13:23:10.851Z,2.50
2022-11-15T13:26:12.263Z,2.50
2022-11-15T13:28:47.077Z,2.30
2022-11-15T13:31:36.758Z,2.40
2022-11-15T13:34:50.123Z,2.13
2022-11-15T13:37:33.400Z,2.10
2022-11-15T13:40:32.077Z,2.47
2022-11-15T13:43:00.687Z,2.53
2022-11-15T13:45:29.114Z,2.10
2022-11-15T13:48:00.116Z,2.53
2022-11-15T13:50:35.189Z,2.63
2022-11-15T13:53:07.488Z,2.37
2022-11-15T13:55:36.339Z,2.23
2022-11-15T13:58:07.637Z,3.13
2022-11-15T14:00:41.109Z,2.70
2022-11-15T14:03:20.254Z,2.93
2022-11-15T14:06:08.468Z,2.37
2022-11-15T14:08:38.703Z,3.00
2022-11-15T14:11:15.495Z,2.50
2022-11-15T14:14:00.800Z,2.60
2022-11-15T14:16:38.300Z,2.40
2022-11-15T14:19:09.549Z,2.10
2022-11-15T14:21:38.210Z,2.33
2022-11-15T14:24:23.295Z,2.33
2022-11-15T14:26:51.719Z,2.50
2022-11-15T14:29:27.874Z,2.80
2022-11-15T14:32:13.873Z,2.97
2022-11-15T14:34:43.057Z,3.33
2022-11-15T14:37:24.680Z,3.60
2022-11-15T14:39:56.406Z,3.67
2022-11-15T14:42:25.648Z,3.70
2022-11-15T14:44:54.746Z,2.70
2022-11-15T14:47:23.170Z,3.13
2022-11-15T14:49:51.689Z,3.00
2022-11-15T14:52:32.678Z,3.47
2022-11-15T14:55:05.783Z,3.27
2022-11-15T14:57:34.184Z,4.00
2022-11-15T15:00:03.877Z,3.73
2022-11-15T15:02:42.867Z,3.73
2022-11-15T15:05:21.594Z,3.33
2022-11-15T15:07:51.183Z,3.73
2022-11-15T15:13:20.133Z,2.70
2022-11-15T15:15:50.491Z,2.60
2022-11-15T15:18:20.883Z,2.90
2022-11-15T15:21:00.741Z,2.47
2022-11-15T15:23:31.715Z,2.60
2022-11-15T15:26:01.688Z,2.30
2022-11-15T15:28:34.503Z,3.00
2022-11-15T15:31:03.725Z,3.17
2022-11-15T15:33:32.388Z,3.20
2022-11-15T15:36:01.073Z,2.67
2022-11-15T15:38:30.169Z,3.00
2022-11-15T15:41:00.530Z,3.03
2022-11-15T15:43:30.490Z,3.60
2022-11-15T15:45:59.618Z,3.40
2022-11-15T15:48:28.065Z,2.73
2022-11-15T15:50:56.523Z,3.27
2022-11-15T15:53:24.984Z,3.40
2022-11-15T15:55:53.388Z,2.90
2022-11-15T15:58:21.945Z,3.07
2022-11-15T16:00:52.327Z,3.40
2022-11-15T16:03:20.840Z,3.90
2022-11-15T16:05:49.342Z,3.77
2022-11-15T16:08:22.046Z,4.67
2022-11-15T16:10:51.383Z,4.50
2022-11-15T16:13:20.083Z,4.47
2022-11-15T16:15:54.326Z,4.37
2022-11-15T16:18:23.093Z,4.83
2022-11-15T16:20:55.663Z,3.90
2022-11-15T16:23:25.433Z,6.47
2022-11-15T16:25:57.163Z,4.73
2022-11-15T16:28:32.346Z,6.23
2022-11-15T16:31:05.836Z,5.80
2022-11-15T16:33:34.767Z,5.23
2022-11-15T16:36:04.270Z,5.00
2022-11-15T16:38:33.100Z,6.10
2022-11-15T16:41:01.916Z,5.53
2022-11-15T16:43:30.381Z,6.87
2022-11-15T16:45:58.911Z,6.90
2022-11-15T16:48:30.165Z,5.70
2022-11-15T16:51:00.345Z,6.10
2022-11-15T16:53:29.487Z,6.20
2022-11-15T16:55:58.966Z,5.90
2022-11-15T16:58:27.466Z,5.63
2022-11-15T17:00:58.179Z,5.33
2022-11-15T17:03:28.005Z,5.67
2022-11-15T17:06:00.386Z,5.53
2022-11-15T17:08:28.798Z,5.10
2022-11-15T17:10:57.198Z,5.50
2022-11-15T17:13:25.602Z,5.60
2022-11-15T17:16:08.796Z,5.70
2022-11-15T17:18:39.250Z,5.83
2022-11-15T17:21:11.049Z,5.30
2022-11-15T17:23:39.909Z,5.97
2022-11-15T17:26:28.375Z,5.40
2022-11-15T17:28:57.958Z,4.47
2022-11-15T17:31:26.995Z,4.47
2022-11-15T17:33:56.766Z,4.80
2022-11-15T17:36:25.193Z,4.43
2022-11-15T17:38:59.053Z,4.40
2022-11-15T17:41:28.867Z,4.47
2022-11-15T17:43:59.193Z,4.10
2022-11-15T17:46:29.348Z,3.50
2022-11-15T17:48:59.513Z,4.00
2022-11-15T17:51:27.939Z,4.10
2022-11-15T17:53:57.250Z,5.60
2022-11-15T17:56:28.501Z,5.87
2022-11-15T17:58:59.364Z,5.80
2022-11-15T18:01:30.746Z,8.60
2022-11-15T18:04:03.609Z,7.27
2022-11-15T18:06:35.312Z,8.03
2022-11-15T18:09:05.354Z,5.83
2022-11-15T18:11:38.285Z,4.63
2022-11-15T18:14:10.231Z,3.60
2022-11-15T18:16:40.202Z,2.80
2022-11-15T18:19:13.617Z,2.97
2022-11-15T18:22:00.814Z,2.47
2022-11-15T18:24:32.401Z,2.77
2022-11-15T18:27:03.949Z,2.57
2022-11-15T18:29:34.527Z,3.10
2022-11-15T18:32:06.295Z,3.20
2022-11-15T18:34:36.080Z,3.07
2022-11-15T18:37:05.056Z,3.20
2022-11-15T18:39:33.668Z,3.20
2022-11-15T18:42:02.629Z,3.57
2022-11-15T18:44:31.205Z,3.37
2022-11-15T18:46:59.745Z,3.53
2022-11-15T18:49:28.230Z,3.03
2022-11-15T18:51:58.220Z,3.20
2022-11-15T18:54:30.833Z,3.47
2022-11-15T18:57:00.687Z,2.97
2022-11-15T18:59:30.218Z,3.47
2022-11-15T19:01:58.638Z,3.13
2022-11-15T19:04:27.442Z,2.80
2022-11-15T19:06:57.290Z,3.00
2022-11-15T19:09:31.927Z,3.20
2022-11-15T19:12:00.561Z,2.90
2022-11-15T19:14:29.380Z,3.20
2022-11-15T19:16:57.913Z,3.20
2022-11-15T19:19:28.788Z,3.23
2022-11-15T19:21:58.832Z,3.20
2022-11-15T19:24:28.851Z,3.17
2022-11-15T19:26:57.358Z,2.87
2022-11-15T19:29:25.829Z,2.70
2022-11-15T19:31:54.255Z,4.97
2022-11-15T19:34:22.661Z,6.47
2022-11-15T19:36:51.214Z,8.87
2022-11-15T19:39:20.964Z,7.83
2022-11-15T19:41:50.001Z,7.17
2022-11-15T19:44:18.849Z,7.60
2022-11-15T19:46:47.816Z,5.37
2022-11-15T19:49:16.187Z,4.37
2022-11-15T19:51:47.067Z,5.43
2022-11-15T19:54:17.109Z,7.37
2022-11-15T19:56:46.978Z,4.00
2022-11-15T19:59:17.249Z,5.80
2022-11-15T20:01:45.666Z,6.10
2022-11-15T20:04:14.077Z,5.33
2022-11-15T20:06:45.255Z,7.60
2022-11-15T20:09:16.018Z,7.90
2022-11-15T20:11:46.026Z,9.17
2022-11-15T20:14:14.528Z,8.80
2022-11-15T20:16:42.970Z,8.30
2022-11-15T20:19:12.444Z,7.80
2022-11-15T20:21:41.143Z,6.60
2022-11-15T20:24:09.990Z,4.83
2022-11-15T20:26:39.230Z,5.33
2022-11-15T20:29:09.949Z,5.57
2022-11-15T20:31:38.571Z,5.73
2022-11-15T20:34:07.094Z,5.20
2022-11-15T20:36:35.591Z,6.00
2022-11-15T20:39:04.214Z,5.50
2022-11-15T20:41:32.679Z,6.40
2022-11-15T20:44:02.911Z,5.97
2022-11-15T20:46:32.714Z,6.10
2022-11-15T20:49:01.291Z,6.50
2022-11-15T20:51:29.703Z,6.93
2022-11-15T20:53:58.115Z,6.40
2022-11-15T20:56:26.614Z,6.80
2022-11-15T20:58:56.411Z,7.00
2022-11-15T21:01:25.617Z,7.13
2022-11-15T21:03:57.331Z,7.17
2022-11-15T21:06:27.779Z,6.87
2022-11-15T21:09:14.400Z,7.63
2022-11-15T21:12:00.661Z,7.43
2022-11-15T21:14:29.149Z,7.43
2022-11-15T21:16:57.603Z,8.67
2022-11-15T21:19:32.594Z,8.07
2022-11-15T21:22:06.330Z,7.97
2022-11-15T21:24:34.735Z,8.30
2022-11-15T21:27:03.184Z,8.77
2022-11-15T21:29:37.374Z,10.40
2022-11-15T21:32:08.223Z,9.60
2022-11-15T21:34:39.130Z,8.73
2022-11-15T21:37:08.068Z,8.97
2022-11-15T21:39:36.470Z,9.13
2022-11-15T21:42:05.349Z,5.60
2022-11-15T21:44:33.746Z,4.30
2022-11-15T21:47:02.167Z,3.17
2022-11-15T21:49:30.573Z,2.77
2022-11-15T21:52:00.316Z,2.50
2022-11-15T21:54:28.715Z,2.40
2022-11-15T21:56:57.139Z,2.30
2022-11-15T21:59:25.634Z,2.37
2022-11-15T22:02:11.750Z,2.30
2022-11-15T22:04:41.554Z,2.10
2022-11-15T22:07:11.336Z,2.10
2022-11-15T22:09:40.219Z,2.37
2022-11-15T22:12:08.650Z,2.60
2022-11-15T22:14:37.023Z,2.30
2022-11-15T22:17:05.558Z,2.37
2022-11-15T22:19:34.011Z,2.50
2022-11-15T22:22:02.495Z,2.97
2022-11-15T22:24:32.802Z,3.50
2022-11-15T22:27:01.301Z,3.83
2022-11-15T22:29:29.750Z,2.83
2022-11-15T22:31:58.241Z,4.50
2022-11-15T22:34:26.750Z,5.00
2022-11-15T22:37:21.433Z,5.83
2022-11-15T22:39:45.074Z,6.30
2022-11-15T22:42:13.591Z,6.77
2022-11-15T22:44:42.336Z,6.50
2022-11-15T22:47:10.801Z,6.20
2022-11-15T22:49:39.350Z,5.53
2022-11-15T22:52:07.855Z,4.80
2022-11-15T22:54:36.371Z,5.33
2022-11-15T22:57:06.542Z,4.90
2022-11-15T22:59:35.816Z,4.23
2022-11-15T23:02:05.210Z,3.77
2022-11-15T23:04:33.751Z,3.50
2022-11-15T23:07:02.436Z,3.60
2022-11-15T23:09:30.974Z,2.50
2022-11-15T23:12:17.176Z,6.30
2022-11-15T23:14:47.003Z,7.20
2022-11-15T23:17:16.169Z,7.37
2022-11-15T23:19:44.645Z,7.67
2022-11-15T23:22:30.758Z,6.80
2022-11-15T23:24:59.592Z,6.77
2022-11-15T23:27:28.109Z,7.77
2022-11-15T23:30:15.248Z,7.43
2022-11-15T23:33:15.908Z,7.30
2022-11-15T23:35:44.386Z,8.10
2022-11-15T23:38:12.855Z,7.83
2022-11-15T23:40:41.318Z,7.10
2022-11-15T23:43:09.785Z,7.90
2022-11-15T23:45:40.540Z,7.67
2022-11-15T23:48:09.028Z,8.23
2022-11-15T23:50:38.407Z,8.33
2022-11-15T23:53:07.191Z,8.33
2022-11-15T23:55:35.679Z,7.10
2022-11-15T23:58:04.184Z,6.87
